createdAt,value
2023-01-20T00:00:04.389Z,98788.91
2023-01-20T00:01:15.060Z,98786.31
2023-01-20T00:02:17.351Z,98788.03
2023-01-20T00:03:19.626Z,98790.59
2023-01-20T00:04:21.875Z,98795.78
2023-01-20T00:05:24.191Z,98795.75
2023-01-20T00:06:29.997Z,98791.47
2023-01-20T00:07:34.836Z,98790.63
2023-01-20T00:08:37.135Z,98788.09
2023-01-20T00:09:39.378Z,98798.41
2023-01-20T00:10:41.601Z,98794.97
2023-01-20T00:11:44.641Z,98795.03
2023-01-20T00:12:46.946Z,98793.25
2023-01-20T00:13:54.704Z,98799.25
2023-01-20T00:14:56.948Z,98796.66
2023-01-20T00:15:59.292Z,98801.88
2023-01-20T00:17:01.684Z,98801.81
2023-01-20T00:18:04.002Z,98805.19
2023-01-20T00:19:06.604Z,98807.75
2023-01-20T00:20:09.783Z,98804.19
2023-01-20T00:21:13.685Z,98800.78
2023-01-20T00:22:15.849Z,98813.72
2023-01-20T00:23:18.039Z,98804.28
2023-01-20T00:24:20.281Z,98814.59
2023-01-20T00:25:22.637Z,98806.94
2023-01-20T00:26:25.547Z,98805.25
2023-01-20T00:27:27.845Z,98806.06
2023-01-20T00:28:30.116Z,98808.66
2023-01-20T00:29:32.444Z,98810.41
2023-01-20T00:30:34.795Z,98811.25
2023-01-20T00:31:37.152Z,98812.09
2023-01-20T00:32:44.678Z,98816.38
2023-01-20T00:33:48.842Z,98823.22
2023-01-20T00:34:51.032Z,98814.53
2023-01-20T00:35:53.193Z,98816.19
2023-01-20T00:36:55.406Z,98822.13
2023-01-20T00:37:57.623Z,98819.53
2023-01-20T00:39:02.142Z,98823.91
2023-01-20T00:40:05.350Z,98826.50
2023-01-20T00:41:08.589Z,98823.06
2023-01-20T00:42:10.788Z,98827.41
2023-01-20T00:43:13.214Z,98822.25
2023-01-20T00:44:15.477Z,98825.81
2023-01-20T00:45:17.770Z,98834.44
2023-01-20T00:46:20.146Z,98837.84
2023-01-20T00:47:22.367Z,98827.53
2023-01-20T00:48:24.935Z,98832.66
2023-01-20T00:49:27.165Z,98824.91
2023-01-20T00:50:29.411Z,98835.25
2023-01-20T00:51:31.587Z,98835.31
2023-01-20T00:52:33.913Z,98837.81
2023-01-20T00:53:36.711Z,98840.38
2023-01-20T00:54:38.975Z,98840.34
2023-01-20T00:55:41.229Z,98840.28
2023-01-20T00:56:43.495Z,98842.00
2023-01-20T00:57:45.765Z,98841.19
2023-01-20T00:58:47.996Z,98839.50
2023-01-20T00:59:50.191Z,98840.41
2023-01-20T01:00:53.572Z,98839.59
2023-01-20T01:01:56.189Z,98840.44
2023-01-20T01:02:58.475Z,98840.50
2023-01-20T01:04:00.871Z,98845.56
2023-01-20T01:05:03.088Z,98840.38
2023-01-20T01:06:14.395Z,98848.13
2023-01-20T01:07:17.604Z,98843.00
2023-01-20T01:08:19.902Z,98851.63
2023-01-20T01:09:22.117Z,98849.06
2023-01-20T01:10:24.431Z,98849.16
2023-01-20T01:11:26.747Z,98851.78
2023-01-20T01:12:29.036Z,98849.94
2023-01-20T01:13:31.706Z,98846.56
2023-01-20T01:14:33.944Z,98847.44
2023-01-20T01:15:36.347Z,98857.00
2023-01-20T01:16:38.559Z,98856.16
2023-01-20T01:17:42.110Z,98857.91
2023-01-20T01:18:44.402Z,98854.50
2023-01-20T01:19:46.645Z,98857.09
2023-01-20T01:20:48.834Z,98855.41
2023-01-20T01:21:51.006Z,98860.53
2023-01-20T01:22:53.274Z,98870.78
2023-01-20T01:23:55.532Z,98864.78
2023-01-20T01:24:57.735Z,98860.50
2023-01-20T01:25:59.977Z,98868.22
2023-01-20T01:27:04.345Z,98856.16
2023-01-20T01:28:06.932Z,98868.16
2023-01-20T01:29:09.220Z,98868.16
2023-01-20T01:30:12.116Z,98873.31
2023-01-20T01:31:14.542Z,98862.13
2023-01-20T01:32:16.775Z,98877.56
2023-01-20T01:33:19.189Z,98865.47
2023-01-20T01:34:21.433Z,98869.75
2023-01-20T01:35:23.762Z,98862.81
2023-01-20T01:36:26.047Z,98885.22
2023-01-20T01:37:29.043Z,98868.09
2023-01-20T01:38:31.495Z,98880.94
2023-01-20T01:39:33.738Z,98884.44
2023-01-20T01:40:36.060Z,98892.19
2023-01-20T01:41:38.265Z,98893.94
2023-01-20T01:42:42.912Z,98894.75
2023-01-20T01:44:06.140Z,98901.66
2023-01-20T01:45:11.435Z,98897.38
2023-01-20T01:46:13.945Z,98898.28
2023-01-20T01:47:16.192Z,98901.69
2023-01-20T01:48:23.793Z,98909.44
2023-01-20T01:49:30.729Z,98904.31
2023-01-20T01:50:39.694Z,98905.16
2023-01-20T01:51:47.926Z,98896.56
2023-01-20T01:52:53.707Z,98904.25
2023-01-20T01:54:05.315Z,98899.09
2023-01-20T01:55:08.366Z,98894.75
2023-01-20T01:56:12.993Z,98904.13
2023-01-20T01:57:15.207Z,98895.56
2023-01-20T01:58:22.947Z,98900.84
2023-01-20T01:59:25.133Z,98903.50
2023-01-20T02:02:25.290Z,98905.25
2023-01-20T02:03:50.673Z,98900.94
2023-01-20T02:04:52.885Z,98906.91
2023-01-20T02:05:55.694Z,98907.78
2023-01-20T02:07:04.409Z,98904.31
2023-01-20T02:08:07.876Z,98908.59
2023-01-20T02:09:10.148Z,98906.81
2023-01-20T02:10:13.112Z,98905.06
2023-01-20T02:11:15.296Z,98907.63
2023-01-20T02:12:20.029Z,98908.47
2023-01-20T02:13:22.269Z,98908.53
2023-01-20T02:14:34.099Z,98907.66
2023-01-20T02:16:13.092Z,98899.91
2023-01-20T02:17:28.478Z,98906.88
2023-01-20T02:18:49.518Z,98907.72
2023-01-20T02:20:13.257Z,98918.03
2023-01-20T02:21:42.630Z,98914.50
2023-01-20T02:23:03.026Z,98919.63
2023-01-20T02:24:52.433Z,98917.00
2023-01-20T02:26:22.035Z,98916.13
2023-01-20T02:27:36.022Z,98909.28
2023-01-20T02:28:51.639Z,98917.00
2023-01-20T02:29:56.467Z,98917.97
2023-01-20T02:31:07.431Z,98919.75
2023-01-20T02:32:26.613Z,98919.78
2023-01-20T02:33:33.208Z,98928.41
2023-01-20T02:34:39.769Z,98927.53
2023-01-20T02:35:48.992Z,98924.94
2023-01-20T02:36:57.087Z,98925.78
2023-01-20T02:38:14.300Z,98930.94
2023-01-20T02:39:42.532Z,98929.16
2023-01-20T02:40:59.728Z,98930.00
2023-01-20T02:42:06.871Z,98933.44
2023-01-20T02:43:11.622Z,98925.72
2023-01-20T02:44:52.585Z,98929.22
2023-01-20T02:46:08.560Z,98922.31
2023-01-20T02:47:20.703Z,98930.91
2023-01-20T02:48:44.092Z,98929.16
2023-01-20T02:50:07.112Z,98932.50
2023-01-20T02:51:11.024Z,98936.84
2023-01-20T02:52:17.005Z,98934.25
2023-01-20T02:53:20.422Z,98927.41
2023-01-20T02:54:27.145Z,98924.81
2023-01-20T02:55:42.793Z,98936.03
2023-01-20T02:56:47.193Z,98930.94
2023-01-20T02:57:55.703Z,98936.09
2023-01-20T02:58:57.840Z,98939.53
2023-01-20T03:00:07.637Z,98933.50
2023-01-20T03:01:31.643Z,98939.53
2023-01-20T03:02:36.002Z,98942.94
2023-01-20T03:03:42.464Z,98948.16
2023-01-20T03:04:52.197Z,98942.94
2023-01-20T03:05:59.699Z,98937.78
2023-01-20T03:07:04.618Z,98940.34
2023-01-20T03:08:10.658Z,98947.22
2023-01-20T03:09:18.687Z,98947.22
2023-01-20T03:10:25.266Z,98950.69
2023-01-20T03:11:31.226Z,98946.41
2023-01-20T03:12:51.367Z,98947.22
2023-01-20T03:14:08.425Z,98951.50
2023-01-20T03:15:11.861Z,98947.22
2023-01-20T03:16:17.332Z,98951.50
2023-01-20T03:17:20.506Z,98946.31
2023-01-20T03:18:22.958Z,98946.31
2023-01-20T03:19:25.211Z,98954.97
2023-01-20T03:20:27.507Z,98951.50
2023-01-20T03:21:30.056Z,98957.59
2023-01-20T03:22:32.399Z,98959.28
2023-01-20T03:23:37.428Z,98959.31
2023-01-20T03:24:43.087Z,98962.75
2023-01-20T03:25:47.575Z,98967.03
2023-01-20T03:26:49.795Z,98968.75
2023-01-20T03:27:52.158Z,98955.84
2023-01-20T03:28:54.677Z,98965.28
2023-01-20T03:29:56.962Z,98964.41
2023-01-20T03:31:01.658Z,98958.41
2023-01-20T03:32:07.609Z,98964.50
2023-01-20T03:33:10.707Z,98966.25
2023-01-20T03:34:18.422Z,98965.41
2023-01-20T03:35:21.126Z,98967.16
2023-01-20T03:36:26.025Z,98964.59
2023-01-20T03:37:28.434Z,98971.44
2023-01-20T03:38:30.752Z,98970.59
2023-01-20T03:39:34.375Z,98975.75
2023-01-20T03:41:18.181Z,98975.75
2023-01-20T03:42:31.596Z,98980.03
2023-01-20T03:43:50.675Z,98983.47
2023-01-20T03:45:42.605Z,98982.59
2023-01-20T03:47:08.918Z,98978.31
2023-01-20T03:48:22.646Z,98984.28
2023-01-20T03:49:38.086Z,98986.88
2023-01-20T03:50:52.076Z,98992.03
2023-01-20T03:52:23.075Z,98990.31
2023-01-20T03:53:58.145Z,98992.03
2023-01-20T03:55:06.861Z,98999.72
2023-01-20T03:56:24.196Z,99004.88
2023-01-20T03:57:31.902Z,98996.31
2023-01-20T03:58:38.967Z,99002.34
2023-01-20T03:59:43.823Z,98996.31
2023-01-20T04:00:49.563Z,99001.47
2023-01-20T04:01:53.528Z,98998.03
2023-01-20T04:02:57.275Z,99000.59
2023-01-20T04:04:00.955Z,99002.31
2023-01-20T04:05:05.176Z,99003.13
2023-01-20T04:06:10.029Z,98999.69
2023-01-20T04:07:19.043Z,98997.94
2023-01-20T04:08:23.994Z,98991.88
2023-01-20T04:09:31.762Z,99003.06
2023-01-20T04:10:38.669Z,98996.16
2023-01-20T04:11:41.281Z,99001.25
2023-01-20T04:12:43.543Z,99002.03
2023-01-20T04:13:45.738Z,98996.84
2023-01-20T04:14:47.897Z,99010.59
2023-01-20T04:15:50.240Z,99003.63
2023-01-20T04:16:58.371Z,99007.06
2023-01-20T04:18:21.723Z,99004.38
2023-01-20T04:19:25.003Z,99003.56
2023-01-20T04:20:27.879Z,99006.25
2023-01-20T04:21:36.376Z,99002.78
2023-01-20T04:22:52.000Z,99005.41
2023-01-20T04:24:20.317Z,99009.69
2023-01-20T04:25:28.507Z,99009.69
2023-01-20T04:26:30.715Z,99010.56
2023-01-20T04:27:33.128Z,99007.97
2023-01-20T04:28:35.324Z,99011.38
2023-01-20T04:29:37.652Z,99008.72
2023-01-20T04:30:39.893Z,99013.94
2023-01-20T04:31:42.228Z,99016.53
2023-01-20T04:32:44.458Z,99018.31
2023-01-20T04:33:46.686Z,99014.03
2023-01-20T04:34:52.061Z,99010.59
2023-01-20T04:35:54.253Z,99015.81
2023-01-20T04:36:56.479Z,99015.81
2023-01-20T04:37:58.710Z,99014.97
2023-01-20T04:39:00.894Z,99022.69
2023-01-20T04:40:03.110Z,99023.56
2023-01-20T04:41:05.455Z,99019.25
2023-01-20T04:42:07.681Z,99021.88
2023-01-20T04:43:10.270Z,99028.72
2023-01-20T04:44:12.528Z,99032.19
2023-01-20T04:45:16.766Z,99033.88
2023-01-20T04:46:19.162Z,99024.44
2023-01-20T04:47:21.384Z,99033.94
2023-01-20T04:48:23.724Z,99030.53
2023-01-20T04:49:25.932Z,99039.25
2023-01-20T04:50:28.181Z,99034.09
2023-01-20T04:51:32.829Z,99037.50
2023-01-20T04:52:35.097Z,99040.94
2023-01-20T04:53:37.402Z,99035.81
2023-01-20T04:54:39.656Z,99038.41
2023-01-20T04:55:41.869Z,99038.38
2023-01-20T04:56:44.396Z,99041.81
2023-01-20T04:57:47.807Z,99040.97
2023-01-20T04:58:50.131Z,99040.97
2023-01-20T04:59:52.663Z,99039.28
2023-01-20T05:00:54.983Z,99045.28
2023-01-20T05:01:57.302Z,99050.44
2023-01-20T05:02:59.709Z,99045.28
2023-01-20T05:04:01.955Z,99053.88
2023-01-20T05:05:04.471Z,99052.13
2023-01-20T05:06:06.794Z,99055.59
2023-01-20T05:07:09.039Z,99052.97
2023-01-20T05:08:11.453Z,99050.38
2023-01-20T05:09:15.706Z,99061.53
2023-01-20T05:10:17.939Z,99047.81
2023-01-20T05:11:20.136Z,99049.53
2023-01-20T05:12:22.476Z,99059.84
2023-01-20T05:13:24.723Z,99059.00
2023-01-20T05:14:26.910Z,99054.72
2023-01-20T05:15:29.170Z,99065.00
2023-01-20T05:16:32.146Z,99055.56
2023-01-20T05:17:34.401Z,99063.28
2023-01-20T05:18:36.893Z,99069.31
2023-01-20T05:19:40.754Z,99068.47
2023-01-20T05:20:48.382Z,99064.19
2023-01-20T05:21:50.608Z,99065.94
2023-01-20T05:22:52.852Z,99058.19
2023-01-20T05:23:55.453Z,99062.50
2023-01-20T05:24:57.675Z,99067.66
2023-01-20T05:25:59.866Z,99065.06
2023-01-20T05:27:02.194Z,99064.22
2023-01-20T05:28:04.579Z,99071.09
2023-01-20T05:29:06.841Z,99071.09
2023-01-20T05:30:09.735Z,99066.78
2023-01-20T05:31:12.124Z,99074.53
2023-01-20T05:32:14.751Z,99073.66
2023-01-20T05:33:17.001Z,99072.81
2023-01-20T05:34:19.313Z,99069.41
2023-01-20T05:35:21.704Z,99084.00
2023-01-20T05:36:24.015Z,99081.41
2023-01-20T05:37:26.242Z,99082.25
2023-01-20T05:38:28.532Z,99077.97
2023-01-20T05:39:30.894Z,99081.38
2023-01-20T05:40:33.316Z,99092.56
2023-01-20T05:41:35.512Z,99092.56
2023-01-20T05:42:37.757Z,99093.44
2023-01-20T05:43:40.016Z,99090.00
2023-01-20T05:44:42.296Z,99094.31
2023-01-20T05:45:46.579Z,99094.31
2023-01-20T05:46:48.854Z,99091.72
2023-01-20T05:47:58.163Z,99106.31
2023-01-20T05:49:00.360Z,99099.47
2023-01-20T05:50:03.744Z,99104.63
2023-01-20T05:51:06.900Z,99111.47
2023-01-20T05:52:09.111Z,99113.19
2023-01-20T05:53:11.401Z,99108.03
2023-01-20T05:54:13.823Z,99111.44
2023-01-20T05:55:16.708Z,99101.16
2023-01-20T05:56:19.112Z,99117.44
2023-01-20T05:57:24.532Z,99119.19
2023-01-20T05:58:26.801Z,99110.63
2023-01-20T05:59:29.003Z,99114.91
2023-01-20T06:00:31.640Z,99121.78
2023-01-20T06:01:33.884Z,99119.19
2023-01-20T06:02:36.143Z,99121.81
2023-01-20T06:03:39.303Z,99129.53
2023-01-20T06:04:41.748Z,99126.09
2023-01-20T06:05:44.050Z,99126.09
2023-01-20T06:06:46.308Z,99126.09
2023-01-20T06:07:49.614Z,99126.06
2023-01-20T06:08:53.393Z,99127.78
2023-01-20T06:09:56.263Z,99125.22
2023-01-20T06:10:58.941Z,99128.63
2023-01-20T06:12:01.144Z,99120.00
2023-01-20T06:13:03.528Z,99130.31
2023-01-20T06:14:06.217Z,99128.59
2023-01-20T06:15:09.695Z,99128.59
2023-01-20T06:16:12.041Z,99141.47
2023-01-20T06:17:14.521Z,99140.56
2023-01-20T06:18:16.821Z,99142.22
2023-01-20T06:19:19.256Z,99141.41
2023-01-20T06:20:21.658Z,99144.88
2023-01-20T06:21:24.929Z,99144.00
2023-01-20T06:22:27.508Z,99139.69
2023-01-20T06:23:29.827Z,99143.13
2023-01-20T06:24:32.089Z,99143.97
2023-01-20T06:25:35.269Z,99138.84
2023-01-20T06:26:37.563Z,99143.09
2023-01-20T06:27:39.752Z,99143.97
2023-01-20T06:28:42.186Z,99145.69
2023-01-20T06:29:44.522Z,99146.53
2023-01-20T06:30:46.794Z,99148.25
2023-01-20T06:31:49.084Z,99142.28
2023-01-20T06:32:51.435Z,99137.13
2023-01-20T06:33:53.920Z,99144.84
2023-01-20T06:34:56.206Z,99148.31
2023-01-20T06:35:58.933Z,99156.03
2023-01-20T06:37:02.174Z,99152.59
2023-01-20T06:38:04.443Z,99155.16
2023-01-20T06:39:07.032Z,99151.69
2023-01-20T06:40:09.986Z,99152.56
2023-01-20T06:41:12.968Z,99153.41
2023-01-20T06:42:15.316Z,99158.56
2023-01-20T06:43:17.573Z,99164.59
2023-01-20T06:44:20.136Z,99157.72
2023-01-20T06:45:22.443Z,99162.91
2023-01-20T06:46:24.747Z,99168.88
2023-01-20T06:47:27.019Z,99161.16
2023-01-20T06:48:29.608Z,99162.81
2023-01-20T06:49:33.475Z,99169.59
2023-01-20T06:50:35.766Z,99163.56
2023-01-20T06:51:38.007Z,99169.53
2023-01-20T06:52:40.250Z,99166.09
2023-01-20T06:53:43.058Z,99170.34
2023-01-20T06:54:45.245Z,99168.66
2023-01-20T06:55:56.034Z,99172.94
2023-01-20T06:56:58.416Z,99168.72
2023-01-20T06:58:00.681Z,99168.75
2023-01-20T06:59:02.916Z,99176.50
2023-01-20T07:00:05.720Z,99177.31
2023-01-20T07:01:12.190Z,99179.06
2023-01-20T07:02:14.695Z,99176.53
2023-01-20T07:03:17.305Z,99181.69
2023-01-20T07:04:19.720Z,99185.13
2023-01-20T07:05:21.975Z,99186.00
2023-01-20T07:06:35.627Z,99194.59
2023-01-20T07:07:37.893Z,99194.56
2023-01-20T07:08:40.214Z,99186.88
2023-01-20T07:09:42.480Z,99197.19
2023-01-20T07:10:45.526Z,99188.56
2023-01-20T07:11:47.783Z,99193.75
2023-01-20T07:12:49.997Z,99191.19
2023-01-20T07:13:52.201Z,99193.75
2023-01-20T07:14:54.435Z,99199.72
2023-01-20T07:15:56.831Z,99201.44
2023-01-20T07:16:59.047Z,99204.03
2023-01-20T07:18:01.290Z,99209.16
2023-01-20T07:19:04.267Z,99202.28
2023-01-20T07:20:07.026Z,99201.34
2023-01-20T07:21:12.503Z,99207.28
2023-01-20T07:22:14.752Z,99207.25
2023-01-20T07:23:16.953Z,99208.16
2023-01-20T07:24:19.263Z,99209.06
2023-01-20T07:25:21.602Z,99214.22
2023-01-20T07:26:26.394Z,99209.09
2023-01-20T07:27:28.677Z,99216.00
2023-01-20T07:28:32.117Z,99211.72
2023-01-20T07:29:34.266Z,99219.44
2023-01-20T07:30:36.515Z,99214.28
2023-01-20T07:31:40.185Z,99216.91
2023-01-20T07:32:42.447Z,99213.44
2023-01-20T07:33:45.096Z,99223.72
2023-01-20T07:34:50.038Z,99220.34
2023-01-20T07:35:54.104Z,99226.34
2023-01-20T07:36:56.428Z,99228.03
2023-01-20T07:37:58.666Z,99226.31
2023-01-20T07:39:00.875Z,99230.63
2023-01-20T07:40:03.529Z,99231.47
2023-01-20T07:41:10.717Z,99229.78
2023-01-20T07:42:12.953Z,99234.06
2023-01-20T07:43:15.481Z,99229.78
2023-01-20T07:44:17.683Z,99237.50
2023-01-20T07:45:20.075Z,99245.16
2023-01-20T07:46:22.578Z,99243.41
2023-01-20T07:47:24.863Z,99247.69
2023-01-20T07:48:29.367Z,99243.56
2023-01-20T07:49:31.644Z,99248.78
2023-01-20T07:50:37.471Z,99251.38
2023-01-20T07:51:39.944Z,99253.09
2023-01-20T07:52:43.116Z,99253.94
2023-01-20T07:53:47.522Z,99253.09
2023-01-20T07:54:49.772Z,99260.78
2023-01-20T07:55:51.971Z,99256.56
2023-01-20T07:56:54.164Z,99258.31
2023-01-20T07:57:56.689Z,99258.34
2023-01-20T07:58:58.976Z,99262.66
2023-01-20T08:00:01.173Z,99263.50
2023-01-20T08:01:08.370Z,99264.38
2023-01-20T08:02:10.854Z,99267.78
2023-01-20T08:03:13.348Z,99272.03
2023-01-20T08:04:15.635Z,99266.09
2023-01-20T08:05:18.235Z,99269.56
2023-01-20T08:06:22.906Z,99264.47
2023-01-20T08:07:25.133Z,99266.19
2023-01-20T08:08:27.814Z,99266.16
2023-01-20T08:09:30.023Z,99261.88
2023-01-20T08:10:32.325Z,99274.75
2023-01-20T08:11:34.504Z,99272.16
2023-01-20T08:12:36.657Z,99267.00
2023-01-20T08:13:39.493Z,99269.63
2023-01-20T08:14:41.780Z,99273.94
2023-01-20T08:15:43.990Z,99272.22
2023-01-20T08:16:46.430Z,99276.50
2023-01-20T08:17:53.557Z,99278.19
2023-01-20T08:18:55.882Z,99275.66
2023-01-20T08:19:58.101Z,99274.78
2023-01-20T08:21:00.418Z,99270.47
2023-01-20T08:22:02.690Z,99279.97
2023-01-20T08:23:04.854Z,99285.13
2023-01-20T08:24:07.213Z,99282.53
2023-01-20T08:25:09.520Z,99288.56
2023-01-20T08:26:11.715Z,99292.00
2023-01-20T08:27:13.948Z,99288.56
2023-01-20T08:28:16.120Z,99298.03
2023-01-20T08:29:18.450Z,99288.53
2023-01-20T08:30:20.727Z,99289.38
2023-01-20T08:31:24.887Z,99288.50
2023-01-20T08:32:27.239Z,99291.88
2023-01-20T08:33:29.467Z,99291.81
2023-01-20T08:34:31.715Z,99293.59
2023-01-20T08:35:35.469Z,99292.78
2023-01-20T08:36:40.610Z,99293.66
2023-01-20T08:37:42.850Z,99294.53
2023-01-20T08:38:45.801Z,99291.09
2023-01-20T08:39:48.128Z,99306.59
2023-01-20T08:40:50.347Z,99309.16
2023-01-20T08:41:52.608Z,99306.56
2023-01-20T08:42:54.887Z,99300.50
2023-01-20T08:43:59.364Z,99311.69
2023-01-20T08:45:02.172Z,99303.03
2023-01-20T08:46:08.256Z,99303.84
2023-01-20T08:47:10.622Z,99305.56
2023-01-20T08:48:12.890Z,99304.66
2023-01-20T08:49:16.812Z,99316.63
2023-01-20T08:50:22.449Z,99316.59
2023-01-20T08:51:30.417Z,99307.91
2023-01-20T08:52:34.053Z,99313.03
2023-01-20T08:53:36.461Z,99314.78
2023-01-20T08:54:38.829Z,99318.19
2023-01-20T08:55:41.092Z,99324.22
2023-01-20T08:56:43.501Z,99325.06
2023-01-20T08:57:45.923Z,99324.22
2023-01-20T08:58:48.341Z,99315.44
2023-01-20T08:59:50.789Z,99324.09
2023-01-20T09:00:53.981Z,99324.09
2023-01-20T09:01:56.168Z,99325.94
2023-01-20T09:02:58.399Z,99332.88
2023-01-20T09:04:06.077Z,99328.66
2023-01-20T09:05:09.219Z,99328.53
2023-01-20T09:06:12.036Z,99332.06
2023-01-20T09:07:14.332Z,99330.22
2023-01-20T09:08:19.352Z,99329.31
2023-01-20T09:09:22.513Z,99323.03
2023-01-20T09:10:24.912Z,99318.69
2023-01-20T09:11:27.328Z,99325.56
2023-01-20T09:12:29.565Z,99325.47
2023-01-20T09:13:32.010Z,99327.00
2023-01-20T09:14:34.346Z,99325.25
2023-01-20T09:15:37.096Z,99327.88
2023-01-20T09:16:39.365Z,99328.47
2023-01-20T09:17:41.557Z,99323.13
2023-01-20T09:18:44.479Z,99327.91
2023-01-20T09:19:46.790Z,99332.91
2023-01-20T09:20:49.044Z,99335.41
2023-01-20T09:21:51.360Z,99330.03
2023-01-20T09:22:53.666Z,99329.66
2023-01-20T09:23:56.044Z,99335.22
2023-01-20T09:24:58.428Z,99340.66
2023-01-20T09:26:01.157Z,99342.78
2023-01-20T09:27:03.505Z,99345.72
2023-01-20T09:28:06.729Z,99342.59
2023-01-20T09:29:15.182Z,99336.53
2023-01-20T09:30:17.537Z,99342.41
2023-01-20T09:31:20.287Z,99345.91
2023-01-20T09:32:22.576Z,99346.78
2023-01-20T09:33:25.044Z,99340.84
2023-01-20T09:34:29.221Z,99343.22
2023-01-20T09:35:31.477Z,99342.47
2023-01-20T09:36:33.695Z,99348.34
2023-01-20T09:37:54.267Z,99338.84
2023-01-20T09:39:15.270Z,99349.06
2023-01-20T09:40:44.348Z,99349.72
2023-01-20T09:42:07.490Z,99352.53
2023-01-20T09:43:55.730Z,99353.41
2023-01-20T09:45:27.726Z,99358.88
2023-01-20T09:47:19.078Z,99358.44
2023-01-20T09:48:39.900Z,99362.50
2023-01-20T09:50:12.852Z,99362.22
2023-01-20T09:51:42.704Z,99358.47
2023-01-20T09:53:03.815Z,99365.78
2023-01-20T09:54:14.465Z,99359.03
2023-01-20T09:55:38.622Z,99362.41
2023-01-20T09:56:46.640Z,99369.56
2023-01-20T09:57:59.146Z,99367.31
2023-01-20T09:59:10.483Z,99376.41
2023-01-20T10:00:18.847Z,99377.19
2023-01-20T10:01:47.147Z,99373.00
2023-01-20T10:03:00.980Z,99372.28
2023-01-20T10:04:12.713Z,99373.38
2023-01-20T10:05:25.586Z,99374.47
2023-01-20T10:06:39.675Z,99371.50
2023-01-20T10:08:02.249Z,99381.56
2023-01-20T10:09:15.063Z,99369.84
2023-01-20T10:10:38.002Z,99376.66
2023-01-20T10:11:41.448Z,99379.47
2023-01-20T10:13:04.735Z,99378.28
2023-01-20T10:14:15.079Z,99386.66
2023-01-20T10:15:27.069Z,99384.53
2023-01-20T10:16:41.782Z,99383.50
2023-01-20T10:18:09.730Z,99387.06
2023-01-20T10:19:44.965Z,99384.66
2023-01-20T10:20:54.566Z,99388.13
2023-01-20T10:22:37.669Z,99387.88
2023-01-20T10:23:46.930Z,99384.47
2023-01-20T10:25:06.491Z,99384.09
2023-01-20T10:26:16.290Z,99374.00
2023-01-20T10:27:28.995Z,99378.81
2023-01-20T10:28:40.501Z,99375.78
2023-01-20T10:29:51.631Z,99378.47
2023-01-20T10:31:00.696Z,99377.44
2023-01-20T10:32:13.455Z,99375.75
2023-01-20T10:33:23.951Z,99377.31
2023-01-20T10:34:34.377Z,99378.78
2023-01-20T10:35:43.315Z,99375.72
2023-01-20T10:37:05.428Z,99374.72
2023-01-20T10:38:19.138Z,99369.13
2023-01-20T10:39:46.080Z,99378.72
2023-01-20T10:41:17.608Z,99371.09
2023-01-20T10:42:21.241Z,99375.28
2023-01-20T10:43:23.676Z,99373.03
2023-01-20T10:44:26.336Z,99375.38
2023-01-20T10:45:40.307Z,99375.16
2023-01-20T10:46:50.614Z,99370.69
2023-01-20T10:48:09.566Z,99375.16
2023-01-20T10:49:32.463Z,99373.91
2023-01-20T10:50:34.633Z,99372.75
2023-01-20T10:51:42.588Z,99373.03
2023-01-20T10:53:05.818Z,99372.34
2023-01-20T10:54:32.696Z,99380.81
2023-01-20T10:56:02.388Z,99386.59
2023-01-20T10:57:06.269Z,99374.97
2023-01-20T10:58:23.550Z,99374.34
2023-01-20T10:59:34.442Z,99376.59
2023-01-20T11:00:37.273Z,99377.31
2023-01-20T11:01:40.176Z,99383.22
2023-01-20T11:02:42.567Z,99373.00
2023-01-20T11:03:47.580Z,99378.63
2023-01-20T11:04:59.810Z,99375.94
2023-01-20T11:06:03.968Z,99383.63
2023-01-20T11:07:15.452Z,99385.88
2023-01-20T11:08:24.312Z,99377.44
2023-01-20T11:09:34.625Z,99371.75
2023-01-20T11:10:36.856Z,99379.22
2023-01-20T11:11:39.326Z,99382.34
2023-01-20T11:12:43.895Z,99378.03
2023-01-20T11:13:46.390Z,99385.31
2023-01-20T11:14:48.883Z,99380.47
2023-01-20T11:15:56.334Z,99376.13
2023-01-20T11:17:06.697Z,99392.94
2023-01-20T11:18:14.699Z,99385.44
2023-01-20T11:19:16.935Z,99386.50
2023-01-20T11:20:23.214Z,99386.41
2023-01-20T11:21:27.856Z,99381.56
2023-01-20T11:22:32.866Z,99383.16
2023-01-20T11:23:36.544Z,99372.75
2023-01-20T11:24:43.695Z,99371.69
2023-01-20T11:25:56.524Z,99374.06
2023-01-20T11:27:07.155Z,99372.59
2023-01-20T11:28:18.318Z,99376.94
2023-01-20T11:29:20.474Z,99374.88
2023-01-20T11:30:27.423Z,99381.28
2023-01-20T11:31:51.260Z,99386.09
2023-01-20T11:33:23.885Z,99380.97
2023-01-20T11:34:36.271Z,99387.91
2023-01-20T11:35:38.474Z,99380.66
2023-01-20T11:36:40.672Z,99383.13
2023-01-20T11:37:42.879Z,99380.38
2023-01-20T11:38:49.501Z,99386.56
2023-01-20T11:39:51.618Z,99383.63
2023-01-20T11:40:55.295Z,99392.00
2023-01-20T11:42:16.606Z,99392.00
2023-01-20T11:43:34.789Z,99382.28
2023-01-20T11:44:43.676Z,99384.31
2023-01-20T11:45:47.307Z,99392.56
2023-01-20T11:46:49.500Z,99379.38
2023-01-20T11:48:01.829Z,99381.25
2023-01-20T11:49:24.515Z,99387.34
2023-01-20T11:51:02.488Z,99377.72
2023-01-20T11:52:19.951Z,99384.13
2023-01-20T11:53:28.746Z,99380.41
2023-01-20T11:54:31.035Z,99390.81
2023-01-20T11:55:42.007Z,99383.56
2023-01-20T11:56:47.524Z,99390.50
2023-01-20T11:58:03.144Z,99385.03
2023-01-20T11:59:19.280Z,99380.91
2023-01-20T12:00:24.203Z,99378.22
2023-01-20T12:01:29.150Z,99385.66
2023-01-20T12:08:46.624Z,99378.38
2023-01-20T12:09:53.294Z,99383.16
2023-01-20T12:11:01.691Z,99381.91
2023-01-20T12:12:28.813Z,99381.59
2023-01-20T12:14:03.596Z,99384.94
2023-01-20T12:15:14.868Z,99381.28
2023-01-20T12:16:17.577Z,99386.53
2023-01-20T12:17:32.440Z,99394.00
2023-01-20T12:18:45.394Z,99386.16
2023-01-20T12:20:09.292Z,99386.34
2023-01-20T12:21:24.139Z,99397.31
2023-01-20T12:22:53.013Z,99384.31
2023-01-20T12:24:02.972Z,99396.47
2023-01-20T12:25:17.560Z,99393.44
2023-01-20T12:26:22.621Z,99389.75
2023-01-20T12:27:28.115Z,99390.72
2023-01-20T12:28:57.676Z,99395.69
2023-01-20T12:30:05.767Z,99399.88
2023-01-20T12:31:11.052Z,99402.50
2023-01-20T12:32:13.340Z,99399.19
2023-01-20T12:33:31.272Z,99401.41
2023-01-20T12:34:34.358Z,99400.69
2023-01-20T12:35:44.595Z,99387.28
2023-01-20T12:37:04.703Z,99398.78
2023-01-20T12:38:08.597Z,99394.13
2023-01-20T12:39:47.874Z,99395.00
2023-01-20T12:40:52.845Z,99403.69
2023-01-20T12:42:07.006Z,99400.75
2023-01-20T12:43:22.120Z,99389.03
2023-01-20T12:44:48.496Z,99397.34
2023-01-20T12:46:06.891Z,99403.06
2023-01-20T12:47:36.991Z,99398.31
2023-01-20T12:49:00.700Z,99401.16
2023-01-20T12:50:36.798Z,99414.53
2023-01-20T12:51:57.647Z,99409.75
2023-01-20T12:53:10.584Z,99411.53
2023-01-20T12:54:47.360Z,99422.72
2023-01-20T12:55:57.097Z,99420.97
2023-01-20T12:57:21.184Z,99414.44
2023-01-20T12:58:45.639Z,99414.66
2023-01-20T13:00:23.134Z,99412.09
2023-01-20T13:01:41.210Z,99418.97
2023-01-20T13:03:16.444Z,99414.44
2023-01-20T13:04:18.576Z,99415.09
2023-01-20T13:05:52.608Z,99417.84
2023-01-20T13:07:01.247Z,99418.38
2023-01-20T13:08:21.912Z,99412.56
2023-01-20T13:09:59.403Z,99418.44
2023-01-20T13:11:16.174Z,99417.06
2023-01-20T13:12:36.145Z,99419.47
2023-01-20T13:13:57.041Z,99422.00
2023-01-20T13:15:21.881Z,99420.81
2023-01-20T13:16:33.452Z,99423.06
2023-01-20T13:17:44.980Z,99417.38